createdAt,value
2023-01-02T00:01:00.862Z,9.93
2023-01-02T00:02:05.465Z,9.94
2023-01-02T00:03:10.043Z,10.06
2023-01-02T00:04:12.009Z,10.06
2023-01-02T00:05:19.346Z,10.14
2023-01-02T00:06:21.356Z,10.23
2023-01-02T00:07:25.904Z,10.34
2023-01-02T00:08:27.821Z,10.39
2023-01-02T00:09:32.333Z,10.42
2023-01-02T00:10:34.366Z,10.47
2023-01-02T00:11:39.015Z,10.50
2023-01-02T00:12:41.159Z,10.69
2023-01-02T00:13:45.786Z,10.91
2023-01-02T00:14:48.048Z,10.86
2023-01-02T00:15:52.805Z,10.82
2023-01-02T00:16:54.857Z,10.80
2023-01-02T00:17:59.357Z,10.82
2023-01-02T00:19:01.378Z,10.81
2023-01-02T00:20:06.552Z,10.85
2023-01-02T00:21:11.235Z,10.82
2023-01-02T00:22:15.823Z,10.80
2023-01-02T00:23:17.767Z,10.76
2023-01-02T00:24:22.922Z,10.73
2023-01-02T00:25:24.938Z,10.69
2023-01-02T00:26:29.522Z,10.68
2023-01-02T00:27:31.505Z,10.67
2023-01-02T00:28:36.392Z,10.63
2023-01-02T00:29:38.383Z,10.60
2023-01-02T00:30:42.911Z,10.61
2023-01-02T00:31:44.960Z,10.60
2023-01-02T00:32:49.520Z,10.65
2023-01-02T00:33:54.129Z,10.60
2023-01-02T00:34:56.120Z,10.63
2023-01-02T00:36:00.662Z,10.64
2023-01-02T00:37:05.240Z,10.69
2023-01-02T00:38:10.088Z,10.65
2023-01-02T00:39:12.047Z,10.66
2023-01-02T00:40:16.604Z,10.71
2023-01-02T00:41:19.000Z,10.71
2023-01-02T00:42:23.563Z,10.76
2023-01-02T00:43:25.563Z,10.78
2023-01-02T00:44:30.106Z,10.92
2023-01-02T00:45:32.139Z,10.90
2023-01-02T00:46:36.744Z,10.99
2023-01-02T00:47:38.757Z,11.07
2023-01-02T00:48:43.653Z,11.15
2023-01-02T00:49:45.615Z,11.17
2023-01-02T00:50:50.487Z,11.12
2023-01-02T00:51:52.481Z,11.06
2023-01-02T00:52:59.576Z,10.98
2023-01-02T00:54:01.629Z,10.90
2023-01-02T00:55:06.707Z,10.87
2023-01-02T00:56:08.798Z,10.81
2023-01-02T00:57:13.421Z,10.71
2023-01-02T00:58:18.000Z,10.68
2023-01-02T00:59:20.014Z,10.57
2023-01-02T01:00:24.793Z,10.51
2023-01-02T01:01:29.515Z,10.52
2023-01-02T01:02:31.745Z,10.51
2023-01-02T01:03:36.478Z,10.48
2023-01-02T01:04:38.472Z,10.54
2023-01-02T01:05:43.108Z,10.51
2023-01-02T01:06:45.087Z,10.47
2023-01-02T01:07:49.612Z,10.62
2023-01-02T01:08:54.146Z,10.53
2023-01-02T01:09:58.683Z,10.50
2023-01-02T01:11:05.600Z,10.44
2023-01-02T01:12:10.552Z,10.37
2023-01-02T01:13:12.515Z,10.31
2023-01-02T01:14:17.165Z,10.24
2023-01-02T01:15:19.469Z,10.20
2023-01-02T01:16:24.164Z,10.11
2023-01-02T01:17:26.199Z,10.04
2023-01-02T01:18:30.712Z,10.00
2023-01-02T01:19:36.112Z,9.91
2023-01-02T01:20:38.772Z,9.80
2023-01-02T01:21:43.716Z,9.72
2023-01-02T01:22:48.347Z,9.64
2023-01-02T01:23:54.079Z,9.54
2023-01-02T01:24:58.640Z,9.47
2023-01-02T01:26:04.462Z,9.40
2023-01-02T01:27:09.257Z,9.33
2023-01-02T01:28:11.204Z,9.27
2023-01-02T01:29:15.817Z,9.21
2023-01-02T01:30:18.023Z,9.16
2023-01-02T01:31:23.431Z,9.11
2023-01-02T01:32:25.434Z,9.11
2023-01-02T01:33:29.989Z,9.15
2023-01-02T01:34:34.580Z,9.14
2023-01-02T01:35:36.528Z,9.12
2023-01-02T01:36:41.245Z,9.11
2023-01-02T01:37:43.265Z,9.11
2023-01-02T01:38:48.551Z,9.28
2023-01-02T01:39:56.504Z,9.29
2023-01-02T01:41:02.000Z,9.26
2023-01-02T01:42:04.279Z,9.30
2023-01-02T01:43:15.340Z,9.32
2023-01-02T01:44:41.436Z,9.37
2023-01-02T01:45:46.935Z,9.44
2023-01-02T01:46:49.005Z,9.47
2023-01-02T01:47:57.623Z,9.54
2023-01-02T01:49:04.597Z,9.64
2023-01-02T01:50:12.061Z,9.73
2023-01-02T01:51:14.661Z,9.76
2023-01-02T01:52:24.163Z,9.80
2023-01-02T01:53:26.167Z,9.79
2023-01-02T01:54:36.318Z,9.79
2023-01-02T01:55:47.965Z,9.79
2023-01-02T01:56:52.886Z,9.80
2023-01-02T01:58:02.539Z,9.81
2023-01-02T01:59:07.857Z,9.91
2023-01-02T02:00:11.662Z,9.99
2023-01-02T02:01:20.097Z,10.04
2023-01-02T02:02:27.429Z,10.14
2023-01-02T02:03:34.783Z,10.22
2023-01-02T02:04:37.212Z,10.29
2023-01-02T02:05:43.497Z,10.27
2023-01-02T02:06:45.925Z,10.28
2023-01-02T02:07:59.894Z,10.37
2023-01-02T02:09:09.135Z,10.27
2023-01-02T02:10:12.585Z,10.25
2023-01-02T02:11:20.799Z,10.20
2023-01-02T02:12:27.996Z,10.20
2023-01-02T02:13:34.380Z,10.12
2023-01-02T02:14:36.387Z,10.08
2023-01-02T02:15:48.570Z,10.02
2023-01-02T02:16:56.121Z,9.96
2023-01-02T02:18:12.405Z,9.87
2023-01-02T02:19:49.304Z,9.80
2023-01-02T02:20:57.097Z,9.73
2023-01-02T02:22:19.654Z,9.67
2023-01-02T02:23:56.988Z,9.60
2023-01-02T02:25:31.219Z,9.52
2023-01-02T02:27:11.161Z,9.43
2023-01-02T02:28:38.251Z,9.33
2023-01-02T02:30:03.134Z,9.21
2023-01-02T02:31:11.710Z,9.12
2023-01-02T02:32:24.854Z,9.01
2023-01-02T02:33:44.761Z,8.85
2023-01-02T02:34:57.803Z,8.72
2023-01-02T02:36:07.472Z,8.63
2023-01-02T02:37:22.469Z,8.51
2023-01-02T02:38:40.604Z,8.42
2023-01-02T02:40:02.999Z,8.29
2023-01-02T02:41:12.442Z,8.20
2023-01-02T02:42:27.314Z,8.15
2023-01-02T02:43:42.086Z,8.13
2023-01-02T02:44:55.195Z,8.06
2023-01-02T02:46:09.456Z,8.01
2023-01-02T02:47:20.354Z,7.96
2023-01-02T02:48:30.589Z,7.84
2023-01-02T02:49:45.754Z,7.77
2023-01-02T02:50:56.694Z,7.72
2023-01-02T02:52:07.003Z,7.65
2023-01-02T02:53:14.574Z,7.56
2023-01-02T02:54:24.855Z,7.51
2023-01-02T02:55:30.512Z,7.46
2023-01-02T02:56:35.342Z,7.42
2023-01-02T02:57:39.902Z,7.41
2023-01-02T02:58:46.220Z,7.32
2023-01-02T02:59:48.302Z,7.27
2023-01-02T03:01:04.785Z,7.23
2023-01-02T03:02:06.912Z,7.17
2023-01-02T03:03:19.373Z,7.14
2023-01-02T03:04:23.033Z,7.11
2023-01-02T03:05:36.478Z,7.08
2023-01-02T03:06:50.556Z,7.06
2023-01-02T03:08:01.235Z,7.01
2023-01-02T03:09:18.905Z,7.00
2023-01-02T03:10:29.533Z,6.98
2023-01-02T03:11:39.687Z,6.95
2023-01-02T03:12:53.296Z,6.95
2023-01-02T03:14:02.187Z,6.95
2023-01-02T03:15:17.514Z,6.98
2023-01-02T03:16:30.322Z,6.99
2023-01-02T03:17:44.681Z,6.99
2023-01-02T03:18:56.180Z,7.01
2023-01-02T03:20:00.804Z,7.07
2023-01-02T03:21:10.474Z,7.10
2023-01-02T03:22:16.812Z,7.11
2023-01-02T03:23:26.029Z,7.14
2023-01-02T03:24:29.571Z,7.15
2023-01-02T03:25:37.191Z,7.15
2023-01-02T03:26:42.992Z,7.17
2023-01-02T03:27:50.688Z,7.28
2023-01-02T03:28:57.828Z,7.31
2023-01-02T03:30:05.653Z,7.34
2023-01-02T03:31:09.811Z,7.38
2023-01-02T03:32:24.458Z,7.38
2023-01-02T03:33:30.407Z,7.38
2023-01-02T03:34:37.196Z,7.40
2023-01-02T03:35:44.425Z,7.50
2023-01-02T03:36:54.412Z,7.70
2023-01-02T03:37:58.921Z,7.69
2023-01-02T03:39:09.832Z,7.83
2023-01-02T03:40:20.402Z,7.87
2023-01-02T03:41:27.135Z,7.94
2023-01-02T03:42:35.651Z,7.97
2023-01-02T03:43:40.753Z,7.99
2023-01-02T03:44:50.191Z,8.00
2023-01-02T03:46:02.215Z,8.01
2023-01-02T03:47:16.964Z,8.02
2023-01-02T03:48:29.223Z,8.01
2023-01-02T03:49:37.267Z,8.02
2023-01-02T03:50:47.268Z,8.02
2023-01-02T03:51:51.968Z,8.03
2023-01-02T03:52:54.045Z,8.02
2023-01-02T03:53:59.149Z,7.99
2023-01-02T03:55:02.115Z,7.96
2023-01-02T03:56:19.345Z,7.92
2023-01-02T03:57:30.711Z,7.83
2023-01-02T03:58:47.931Z,7.76
2023-01-02T03:59:57.568Z,7.70
2023-01-02T04:01:07.621Z,7.63
2023-01-02T04:02:14.873Z,7.56
2023-01-02T04:03:23.657Z,7.54
2023-01-02T04:04:40.636Z,7.45
2023-01-02T04:05:48.902Z,7.38
2023-01-02T04:07:01.056Z,7.32
2023-01-02T04:08:08.253Z,7.24
2023-01-02T04:09:16.707Z,7.21
2023-01-02T04:10:19.599Z,7.15
2023-01-02T04:11:25.432Z,7.14
2023-01-02T04:12:29.915Z,7.15
2023-01-02T04:13:41.093Z,7.12
2023-01-02T04:14:47.239Z,7.10
2023-01-02T04:15:53.906Z,7.05
2023-01-02T04:16:58.483Z,7.22
2023-01-02T04:18:07.620Z,7.22
2023-01-02T04:19:14.261Z,7.24
2023-01-02T04:20:26.115Z,7.27
2023-01-02T04:21:31.581Z,7.28
2023-01-02T04:22:42.213Z,7.34
2023-01-02T04:23:48.315Z,7.46
2023-01-02T04:24:58.177Z,8.37
2023-01-02T04:26:06.027Z,8.85
2023-01-02T04:27:15.374Z,8.88
2023-01-02T04:28:25.673Z,8.76
2023-01-02T04:29:28.247Z,8.67
2023-01-02T04:30:37.943Z,8.76
2023-01-02T04:31:48.695Z,8.74
2023-01-02T04:32:51.753Z,8.84
2023-01-02T04:33:59.326Z,8.81
2023-01-02T04:35:06.071Z,8.91
2023-01-02T04:36:15.360Z,8.96
2023-01-02T04:37:31.342Z,9.03
2023-01-02T04:38:35.871Z,9.01
2023-01-02T04:39:38.923Z,9.01
2023-01-02T04:40:44.254Z,9.00
2023-01-02T04:41:46.238Z,9.22
2023-01-02T04:42:50.825Z,9.14
2023-01-02T04:43:53.116Z,9.10
2023-01-02T04:44:57.719Z,9.06
2023-01-02T04:45:59.715Z,9.00
2023-01-02T04:47:04.455Z,9.06
2023-01-02T04:48:06.781Z,9.08
2023-01-02T04:49:12.459Z,9.11
2023-01-02T04:50:14.513Z,9.09
2023-01-02T04:51:21.747Z,9.13
2023-01-02T04:52:23.683Z,9.15
2023-01-02T04:53:28.200Z,9.13
2023-01-02T04:54:30.177Z,9.11
2023-01-02T04:55:34.711Z,9.17
2023-01-02T04:56:36.645Z,9.22
2023-01-02T04:57:41.482Z,9.29
2023-01-02T04:58:44.290Z,9.29
2023-01-02T04:59:48.783Z,9.37
2023-01-02T05:00:50.713Z,9.46
2023-01-02T05:01:55.398Z,9.55
2023-01-02T05:02:57.589Z,9.64
2023-01-02T05:04:02.177Z,9.61
2023-01-02T05:05:05.107Z,9.57
2023-01-02T05:06:10.354Z,9.51
2023-01-02T05:07:14.895Z,9.53
2023-01-02T05:08:19.450Z,9.46
2023-01-02T05:09:21.390Z,9.58
2023-01-02T05:10:25.920Z,9.55
2023-01-02T05:11:28.067Z,9.62
2023-01-02T05:12:35.701Z,9.60
2023-01-02T05:13:37.814Z,9.53
2023-01-02T05:14:42.374Z,9.50
2023-01-02T05:15:44.376Z,9.44
2023-01-02T05:16:48.945Z,9.50
2023-01-02T05:17:50.943Z,9.44
2023-01-02T05:18:55.787Z,9.36
2023-01-02T05:19:57.750Z,9.28
2023-01-02T05:21:06.415Z,9.24
2023-01-02T05:22:26.318Z,9.19
2023-01-02T05:23:46.330Z,9.17
2023-01-02T05:24:48.251Z,9.09
2023-01-02T05:25:52.805Z,9.05
2023-01-02T05:26:55.106Z,9.06
2023-01-02T05:27:59.660Z,9.16
2023-01-02T05:29:02.059Z,9.09
2023-01-02T05:30:07.529Z,9.11
2023-01-02T05:31:10.206Z,9.10
2023-01-02T05:32:14.847Z,9.05
2023-01-02T05:33:16.816Z,9.04
2023-01-02T05:34:21.349Z,9.03
2023-01-02T05:35:28.513Z,8.98
2023-01-02T05:36:36.557Z,8.99
2023-01-02T05:37:38.529Z,9.00
2023-01-02T05:38:45.675Z,9.04
2023-01-02T05:39:47.619Z,9.04
2023-01-02T05:40:52.116Z,9.10
2023-01-02T05:41:54.049Z,9.10
2023-01-02T05:42:58.617Z,9.14
2023-01-02T05:44:00.588Z,9.14
2023-01-02T05:45:05.178Z,9.09
2023-01-02T05:46:08.614Z,9.05
2023-01-02T05:47:16.543Z,9.15
2023-01-02T05:48:18.815Z,9.07
2023-01-02T05:49:23.361Z,9.13
2023-01-02T05:50:25.506Z,9.08
2023-01-02T05:51:30.166Z,9.05
2023-01-02T05:52:32.139Z,9.00
2023-01-02T05:53:36.990Z,8.92
2023-01-02T05:54:41.621Z,8.92
2023-01-02T05:55:46.178Z,8.92
2023-01-02T05:56:48.100Z,8.88
2023-01-02T05:57:59.413Z,8.83
2023-01-02T05:59:01.330Z,8.77
2023-01-02T06:00:06.631Z,8.81
2023-01-02T06:01:10.937Z,8.80
2023-01-02T06:02:15.563Z,8.72
2023-01-02T06:03:17.650Z,8.68
2023-01-02T06:04:22.337Z,8.60
2023-01-02T06:05:24.298Z,8.63
2023-01-02T06:06:32.431Z,8.60
2023-01-02T06:07:34.392Z,8.53
2023-01-02T06:08:39.297Z,8.50
2023-01-02T06:09:43.981Z,8.49
2023-01-02T06:10:52.555Z,8.51
2023-01-02T06:11:57.133Z,8.53
2023-01-02T06:12:59.127Z,8.62
2023-01-02T06:14:03.696Z,8.72
2023-01-02T06:15:06.638Z,8.80
2023-01-02T06:16:12.856Z,8.79
2023-01-02T06:17:14.867Z,8.99
2023-01-02T06:18:19.435Z,9.01
2023-01-02T06:19:21.398Z,8.98
2023-01-02T06:20:25.947Z,9.10
2023-01-02T06:21:27.935Z,9.18
2023-01-02T06:22:33.128Z,9.28
2023-01-02T06:23:37.787Z,9.38
2023-01-02T06:24:39.787Z,9.34
2023-01-02T06:25:46.978Z,9.37
2023-01-02T06:26:51.555Z,9.36
2023-01-02T06:27:53.512Z,9.38
2023-01-02T06:28:59.984Z,9.46
2023-01-02T06:30:02.007Z,9.47
2023-01-02T06:31:09.482Z,9.44
2023-01-02T06:32:11.559Z,9.45
2023-01-02T06:33:16.181Z,9.52
2023-01-02T06:34:18.128Z,9.45
2023-01-02T06:35:22.663Z,9.47
2023-01-02T06:36:25.572Z,9.54
2023-01-02T06:37:30.109Z,9.54
2023-01-02T06:38:32.464Z,9.50
2023-01-02T06:39:37.014Z,9.44
2023-01-02T06:40:38.967Z,9.38
2023-01-02T06:41:46.154Z,9.71
2023-01-02T06:42:48.093Z,10.10
2023-01-02T06:43:53.849Z,10.50
2023-01-02T06:44:55.819Z,10.45
2023-01-02T06:46:01.340Z,10.45
2023-01-02T06:47:03.364Z,10.78
2023-01-02T06:48:08.672Z,10.74
2023-01-02T06:49:10.636Z,10.81
2023-01-02T06:50:15.218Z,10.79
2023-01-02T06:51:21.215Z,10.67
2023-01-02T06:52:23.202Z,10.51
2023-01-02T06:53:27.776Z,10.41
2023-01-02T06:54:32.413Z,10.25
2023-01-02T06:55:34.794Z,10.15
2023-01-02T06:56:39.350Z,10.06
2023-01-02T06:57:43.925Z,9.98
2023-01-02T06:58:48.819Z,9.96
2023-01-02T06:59:50.747Z,9.86
2023-01-02T07:00:55.712Z,9.80
2023-01-02T07:02:00.378Z,9.74
2023-01-02T07:03:02.427Z,9.82
2023-01-02T07:04:07.094Z,9.80
2023-01-02T07:05:10.769Z,9.81
2023-01-02T07:06:17.760Z,9.77
2023-01-02T07:07:22.349Z,9.73
2023-01-02T07:08:24.281Z,9.68
2023-01-02T07:09:29.062Z,9.63
2023-01-02T07:10:31.020Z,9.73
2023-01-02T07:11:35.875Z,9.89
2023-01-02T07:12:38.380Z,9.94
2023-01-02T07:13:46.896Z,9.85
2023-01-02T07:14:51.421Z,9.77
2023-01-02T07:15:53.396Z,9.72
2023-01-02T07:16:57.925Z,9.78
2023-01-02T07:17:59.907Z,9.75
2023-01-02T07:19:04.504Z,9.71
2023-01-02T07:20:07.672Z,9.64
2023-01-02T07:21:13.457Z,9.60
2023-01-02T07:22:17.955Z,9.63
2023-01-02T07:23:19.909Z,9.56
2023-01-02T07:24:24.441Z,9.54
2023-01-02T07:25:26.412Z,9.60
2023-01-02T07:26:30.991Z,9.60
2023-01-02T07:27:33.301Z,9.54
2023-01-02T07:28:38.857Z,9.45
2023-01-02T07:29:43.529Z,9.39
2023-01-02T07:30:48.045Z,9.35
2023-01-02T07:31:52.605Z,9.30
2023-01-02T07:32:57.298Z,9.61
2023-01-02T07:33:59.483Z,9.60
2023-01-02T07:35:04.032Z,9.57
2023-01-02T07:36:08.462Z,9.57
2023-01-02T07:37:13.090Z,9.60
2023-01-02T07:38:15.035Z,9.62
2023-01-02T07:39:19.572Z,9.58
2023-01-02T07:40:21.513Z,9.54
2023-01-02T07:41:27.990Z,9.51
2023-01-02T07:42:29.929Z,9.49
2023-01-02T07:43:34.424Z,9.48
2023-01-02T07:44:38.930Z,9.44
2023-01-02T07:45:49.933Z,9.39
2023-01-02T07:46:55.300Z,9.33
2023-01-02T07:47:58.275Z,9.30
2023-01-02T07:49:02.790Z,9.28
2023-01-02T07:50:05.707Z,9.30
2023-01-02T07:51:10.928Z,9.25
2023-01-02T07:52:12.894Z,9.19
2023-01-02T07:53:17.489Z,9.17
2023-01-02T07:54:22.162Z,9.13
2023-01-02T07:55:24.134Z,9.10
2023-01-02T07:56:29.005Z,9.07
2023-01-02T07:57:31.396Z,8.99
2023-01-02T07:58:36.538Z,8.98
2023-01-02T07:59:41.050Z,8.95
2023-01-02T08:00:48.170Z,8.92
2023-01-02T08:01:52.850Z,8.92
2023-01-02T08:02:57.539Z,8.92
2023-01-02T08:04:02.846Z,8.93
2023-01-02T08:05:05.864Z,9.03
2023-01-02T08:06:12.118Z,9.08
2023-01-02T08:07:14.160Z,9.10
2023-01-02T08:08:19.216Z,9.13
2023-01-02T08:09:23.980Z,9.16
2023-01-02T08:10:28.617Z,9.23
2023-01-02T08:11:30.546Z,9.25
2023-01-02T08:12:35.140Z,9.30
2023-01-02T08:13:37.346Z,9.30
2023-01-02T08:14:41.851Z,9.27
2023-01-02T08:15:46.649Z,9.24
2023-01-02T08:16:51.225Z,9.22
2023-01-02T08:17:55.960Z,9.17
2023-01-02T08:19:00.511Z,9.25
2023-01-02T08:20:07.662Z,9.36
2023-01-02T08:21:13.778Z,9.42
2023-01-02T08:22:15.757Z,9.53
2023-01-02T08:23:20.394Z,9.55
2023-01-02T08:24:24.921Z,9.56
2023-01-02T08:25:26.917Z,9.56
2023-01-02T08:26:31.444Z,9.59
2023-01-02T08:27:33.549Z,9.58
2023-01-02T08:28:39.248Z,9.62
2023-01-02T08:29:43.974Z,9.64
2023-01-02T08:30:51.117Z,9.67
2023-01-02T08:31:55.681Z,9.67
2023-01-02T08:33:01.057Z,9.82
2023-01-02T08:34:03.045Z,9.82
2023-01-02T08:35:09.251Z,9.82
2023-01-02T08:36:15.490Z,9.80
2023-01-02T08:37:20.023Z,9.85
2023-01-02T08:38:24.590Z,9.86
2023-01-02T08:39:30.175Z,9.99
2023-01-02T08:40:34.764Z,10.06
2023-01-02T08:41:41.131Z,10.16
2023-01-02T08:42:45.673Z,10.29
2023-01-02T08:43:50.224Z,10.36
2023-01-02T08:44:54.911Z,10.33
2023-01-02T08:46:04.992Z,10.34
2023-01-02T08:47:09.644Z,10.38
2023-01-02T08:48:20.805Z,10.47
2023-01-02T08:49:26.037Z,10.56
2023-01-02T08:50:30.562Z,10.59
2023-01-02T08:51:35.123Z,10.63
2023-01-02T08:52:39.646Z,10.64
2023-01-02T08:53:41.588Z,10.66
2023-01-02T08:54:46.123Z,10.72
2023-01-02T08:55:50.662Z,10.77
2023-01-02T08:56:55.205Z,10.80
2023-01-02T08:57:59.709Z,10.81
2023-01-02T08:59:06.327Z,10.90
2023-01-02T09:00:10.284Z,10.91
2023-01-02T09:01:17.520Z,10.96
2023-01-02T09:02:22.354Z,11.02
2023-01-02T09:03:24.502Z,11.07
2023-01-02T09:04:29.013Z,11.12
2023-01-02T09:05:31.190Z,11.20
2023-01-02T09:06:39.036Z,11.24
2023-01-02T09:07:43.612Z,11.27
2023-01-02T09:08:48.374Z,11.32
2023-01-02T09:09:53.217Z,11.37
2023-01-02T09:10:55.174Z,11.39
2023-01-02T09:12:00.449Z,11.44
2023-01-02T09:13:05.026Z,11.47
2023-01-02T09:14:07.102Z,11.53
2023-01-02T09:15:12.499Z,11.58
2023-01-02T09:16:19.704Z,11.65
2023-01-02T09:17:24.361Z,11.71
2023-01-02T09:18:29.525Z,11.78
2023-01-02T09:19:34.301Z,11.88
2023-01-02T09:20:42.823Z,11.98
2023-01-02T09:21:47.878Z,12.00
2023-01-02T09:22:49.777Z,12.06
2023-01-02T09:23:54.685Z,12.12
2023-01-02T09:24:59.259Z,12.21
2023-01-02T09:26:02.095Z,12.31
2023-01-02T09:27:06.857Z,12.43
2023-01-02T09:28:11.374Z,12.37
2023-01-02T09:29:17.113Z,12.35
2023-01-02T09:30:22.038Z,12.39
2023-01-02T09:31:29.257Z,12.45
2023-01-02T09:32:33.773Z,12.37
2023-01-02T09:33:38.429Z,12.14
2023-01-02T09:34:43.011Z,12.34
2023-01-02T09:35:44.978Z,12.49
2023-01-02T09:36:50.203Z,12.57
2023-01-02T09:37:54.711Z,12.60
2023-01-02T09:39:01.187Z,12.73
2023-01-02T09:40:05.956Z,12.72
2023-01-02T09:41:25.415Z,12.81
2023-01-02T09:42:30.277Z,12.76
2023-01-02T09:43:40.334Z,12.80
2023-01-02T09:44:48.970Z,12.58
2023-01-02T09:45:54.969Z,12.52
2023-01-02T09:47:05.354Z,12.09
2023-01-02T09:48:17.851Z,11.78
2023-01-02T09:49:25.807Z,11.97
2023-01-02T09:50:30.411Z,12.02
2023-01-02T09:51:37.305Z,12.02
2023-01-02T09:52:45.781Z,12.00
2023-01-02T09:53:47.957Z,11.94
2023-01-02T09:54:53.349Z,11.82
2023-01-02T09:56:05.318Z,11.91
2023-01-02T09:57:27.717Z,11.63
2023-01-02T09:58:41.773Z,11.42
2023-01-02T09:59:54.286Z,11.36
2023-01-02T10:01:00.216Z,11.52
2023-01-02T10:02:25.057Z,11.70
2023-01-02T10:03:39.828Z,11.41
2023-01-02T10:04:59.393Z,11.30
2023-01-02T10:06:18.510Z,11.19
2023-01-02T10:07:32.929Z,11.15
2023-01-02T10:08:47.897Z,11.22
2023-01-02T10:10:00.365Z,11.30
2023-01-02T10:11:19.685Z,11.23
2023-01-02T10:12:32.808Z,11.37
2023-01-02T10:14:17.292Z,11.43
2023-01-02T10:14:57.398Z,11.45
2023-01-02T10:16:16.439Z,11.34
2023-01-02T10:17:24.929Z,11.43
2023-01-02T10:18:33.617Z,11.43
2023-01-02T10:19:45.428Z,11.41
2023-01-02T10:20:57.269Z,11.49
2023-01-02T10:22:00.917Z,11.51
2023-01-02T10:23:09.538Z,11.60
2023-01-02T10:24:17.551Z,11.56
2023-01-02T10:25:25.222Z,11.64
2023-01-02T10:26:35.285Z,11.64
2023-01-02T10:27:44.026Z,11.75
2023-01-02T10:29:32.998Z,11.58
2023-01-02T10:30:45.402Z,11.66
2023-01-02T10:31:55.851Z,11.72
2023-01-02T10:33:07.166Z,11.82
2023-01-02T10:34:17.560Z,11.81
2023-01-02T10:35:38.116Z,11.92
2023-01-02T10:36:44.961Z,12.14
2023-01-02T10:37:49.561Z,12.28
2023-01-02T10:38:54.678Z,12.47
2023-01-02T10:41:05.792Z,12.56
2023-01-02T10:42:14.395Z,12.88
2023-01-02T10:44:37.523Z,13.15
2023-01-02T10:45:42.321Z,13.28
2023-01-02T10:46:47.000Z,13.56
2023-01-02T10:47:51.720Z,13.62
2023-01-02T10:48:59.999Z,13.92
2023-01-02T10:50:06.460Z,14.05
2023-01-02T10:51:18.333Z,14.23
2023-01-02T10:52:27.895Z,14.24
2023-01-02T10:53:33.789Z,14.43
2023-01-02T10:54:59.977Z,14.10
2023-01-02T10:56:05.835Z,14.42
2023-01-02T10:57:13.970Z,14.36
2023-01-02T10:58:24.465Z,14.84
2023-01-02T10:59:31.633Z,14.94
2023-01-02T11:00:39.602Z,14.35
2023-01-02T11:01:54.075Z,14.46
2023-01-02T11:03:00.305Z,14.58
2023-01-02T11:04:24.566Z,14.66
2023-01-02T11:05:29.321Z,14.74
2023-01-02T11:06:39.301Z,14.80
2023-01-02T11:07:52.695Z,14.61
2023-01-02T11:09:02.186Z,14.84
2023-01-02T11:10:07.895Z,14.69
2023-01-02T11:11:17.410Z,14.50
2023-01-02T11:12:27.068Z,14.39
2023-01-02T11:13:53.811Z,14.32
2023-01-02T11:15:15.809Z,13.96
2023-01-02T11:16:22.000Z,14.17
2023-01-02T11:17:28.346Z,14.41
2023-01-02T11:18:32.572Z,14.23
2023-01-02T11:19:46.511Z,14.20
2023-01-02T11:20:50.875Z,14.24
2023-01-02T11:21:56.122Z,14.53
2023-01-02T11:23:03.439Z,14.77
2023-01-02T11:24:11.715Z,15.05
2023-01-02T11:25:24.555Z,15.58
2023-01-02T11:26:27.897Z,15.86
2023-01-02T11:27:34.543Z,15.88
2023-01-02T11:28:43.686Z,15.67
2023-01-02T11:29:48.067Z,15.92
2023-01-02T11:30:54.519Z,15.80
2023-01-02T11:32:02.177Z,15.55
2023-01-02T11:33:20.873Z,15.63
2023-01-02T11:34:27.195Z,15.38
2023-01-02T11:35:37.456Z,15.53
2023-01-02T11:36:46.812Z,15.63
2023-01-02T11:37:52.750Z,15.42
2023-01-02T11:38:58.707Z,15.75
2023-01-02T11:40:03.706Z,16.04
2023-01-02T11:41:09.819Z,15.39
2023-01-02T11:42:35.094Z,15.28
2023-01-02T11:43:49.263Z,15.10
2023-01-02T11:45:00.580Z,15.24
2023-01-02T11:46:10.287Z,15.52
2023-01-02T11:47:17.130Z,15.47
2023-01-02T11:48:22.195Z,15.49
2023-01-02T11:49:29.762Z,15.65
2023-01-02T11:50:39.562Z,15.33
2023-01-02T11:51:45.020Z,15.24
2023-01-02T11:52:54.841Z,15.61
2023-01-02T11:54:03.416Z,15.45
2023-01-02T11:55:16.199Z,15.65
2023-01-02T11:56:27.561Z,15.54
2023-01-02T11:57:37.897Z,15.50
2023-01-02T11:58:49.819Z,15.49
2023-01-02T11:59:54.299Z,15.62
2023-01-02T12:01:06.039Z,15.38
2023-01-02T12:02:17.978Z,15.60
2023-01-02T12:03:25.261Z,15.84
2023-01-02T12:04:31.046Z,15.92
2023-01-02T12:05:47.782Z,15.74
2023-01-02T12:07:09.861Z,16.00
2023-01-02T12:08:26.201Z,15.34
2023-01-02T12:09:38.284Z,16.20
2023-01-02T12:10:53.925Z,16.53
2023-01-02T12:12:11.839Z,16.10
2023-01-02T12:13:45.581Z,16.03
2023-01-02T12:15:07.874Z,16.47
2023-01-02T12:16:25.369Z,16.42
2023-01-02T12:17:37.120Z,16.25
2023-01-02T12:18:56.820Z,16.44
2023-01-02T12:20:17.663Z,16.33
2023-01-02T12:21:26.985Z,15.86
2023-01-02T12:22:52.836Z,15.49
2023-01-02T12:24:31.976Z,15.04
2023-01-02T12:25:56.137Z,15.33
2023-01-02T12:27:07.740Z,15.49
2023-01-02T12:28:21.065Z,15.34
2023-01-02T12:30:03.622Z,15.07
2023-01-02T12:31:22.117Z,14.72
2023-01-02T12:32:56.718Z,14.74
2023-01-02T12:34:11.251Z,14.93
2023-01-02T12:35:37.212Z,14.75
2023-01-02T12:37:00.951Z,14.76
2023-01-02T12:38:10.274Z,14.71
2023-01-02T12:39:36.771Z,14.76
2023-01-02T12:41:00.645Z,14.65
2023-01-02T12:42:20.932Z,14.67
2023-01-02T12:43:47.978Z,14.50
2023-01-02T12:44:55.443Z,14.12
2023-01-02T12:46:08.413Z,14.12
2023-01-02T12:47:30.890Z,14.46
2023-01-02T12:48:49.003Z,14.39
2023-01-02T12:50:21.610Z,14.41
2023-01-02T12:51:33.773Z,14.47
2023-01-02T12:52:54.990Z,14.77
2023-01-02T12:54:26.424Z,14.53
2023-01-02T12:55:44.604Z,14.46
2023-01-02T12:56:57.519Z,14.34
2023-01-02T12:58:09.599Z,14.44
2023-01-02T12:59:40.499Z,14.26
2023-01-02T13:01:07.085Z,14.10
2023-01-02T13:02:16.078Z,14.45
2023-01-02T13:03:45.495Z,14.27
2023-01-02T13:04:52.888Z,14.50
2023-01-02T13:06:02.619Z,14.39
2023-01-02T13:07:15.353Z,14.66
2023-01-02T13:08:26.340Z,14.62
2023-01-02T13:09:35.251Z,14.24
2023-01-02T13:10:38.620Z,13.82
2023-01-02T13:11:46.639Z,13.72
2023-01-02T13:12:51.588Z,13.57
2023-01-02T13:13:57.899Z,13.89
2023-01-02T13:15:05.600Z,13.90
2023-01-02T13:16:24.768Z,13.83
2023-01-02T13:17:40.537Z,13.78
2023-01-02T13:19:00.562Z,13.62
2023-01-02T13:20:16.126Z,13.51
2023-01-02T13:21:27.379Z,13.50
2023-01-02T13:22:41.971Z,13.47
2023-01-02T13:23:51.955Z,13.26
2023-01-02T13:24:59.309Z,13.09
2023-01-02T13:26:06.678Z,13.08
2023-01-02T13:27:13.961Z,13.03
2023-01-02T13:28:17.618Z,13.03
2023-01-02T13:29:25.597Z,13.08
2023-01-02T13:30:38.431Z,12.89
2023-01-02T13:31:47.359Z,12.82
2023-01-02T13:32:52.710Z,12.80
2023-01-02T13:33:58.001Z,12.78
2023-01-02T13:35:06.418Z,12.78
2023-01-02T13:36:22.355Z,12.95
2023-01-02T13:37:30.318Z,13.01
2023-01-02T13:38:36.425Z,13.08
2023-01-02T13:39:53.188Z,12.96
2023-01-02T13:40:58.174Z,12.89
2023-01-02T13:42:17.280Z,12.95
2023-01-02T13:43:28.594Z,13.00
2023-01-02T13:44:39.091Z,13.06
2023-01-02T13:45:50.072Z,13.10
2023-01-02T13:47:04.438Z,13.10
2023-01-02T13:48:20.749Z,13.08
2023-01-02T13:49:25.363Z,12.97
2023-01-02T13:50:32.679Z,12.86
2023-01-02T13:51:39.221Z,12.91
2023-01-02T13:52:54.052Z,12.97
2023-01-02T13:53:58.877Z,13.00
2023-01-02T13:55:34.007Z,12.98
2023-01-02T13:57:13.652Z,13.13
2023-01-02T13:58:41.663Z,13.18
2023-01-02T13:59:53.900Z,13.25
2023-01-02T14:00:57.282Z,13.30
2023-01-02T14:02:20.431Z,13.17
2023-01-02T14:03:40.925Z,13.16
2023-01-02T14:04:45.867Z,13.16
2023-01-02T14:06:01.790Z,13.16
2023-01-02T14:07:42.209Z,13.11
2023-01-02T14:09:11.575Z,13.23
2023-01-02T14:10:41.197Z,13.15
2023-01-02T14:11:57.025Z,13.12
2023-01-02T14:13:07.519Z,13.07
2023-01-02T14:14:18.202Z,13.11
2023-01-02T14:15:24.188Z,13.11
2023-01-02T14:17:02.630Z,13.12
2023-01-02T14:18:06.911Z,13.02
2023-01-02T14:19:26.632Z,13.00
2023-01-02T14:20:31.132Z,12.99
2023-01-02T14:21:38.653Z,13.01
2023-01-02T14:22:48.722Z,12.98
2023-01-02T14:24:17.582Z,12.97
2023-01-02T14:25:18.838Z,12.93
2023-01-02T14:26:25.432Z,13.00
2023-01-02T14:27:33.734Z,13.03
2023-01-02T14:28:42.158Z,13.01
2023-01-02T14:29:53.463Z,12.85
2023-01-02T14:30:59.125Z,12.87
2023-01-02T14:32:07.820Z,12.85
2023-01-02T14:33:18.889Z,12.75
2023-01-02T14:34:25.858Z,12.70
2023-01-02T14:35:36.095Z,12.64
2023-01-02T14:36:43.569Z,12.59
2023-01-02T14:37:50.583Z,12.58
2023-01-02T14:38:57.067Z,12.62
2023-01-02T14:40:13.460Z,12.65
2023-01-02T14:42:05.544Z,12.57
2023-01-02T14:43:30.913Z,12.49
2023-01-02T14:44:36.452Z,12.49
2023-01-02T14:45:48.865Z,12.47
2023-01-02T14:46:54.288Z,12.46
2023-01-02T14:48:01.051Z,12.50
2023-01-02T14:49:25.560Z,12.45
2023-01-02T14:50:35.966Z,12.34
2023-01-02T14:51:44.350Z,12.25
2023-01-02T14:52:52.034Z,12.24
2023-01-02T14:54:00.801Z,12.26
2023-01-02T14:55:09.083Z,12.20